This is the latest recevied weather packets stored in our database for station/object OE5OVL-13. If no packets are shown the sender has not sent any weather packets the latest 10 day(s).
| Time | Temp. | Humidity | Pressure | Rain* | Wind** | Luminosity | Snow |
|---|---|---|---|---|---|---|---|
| 1776954798 | 20.56° C | 28% | 1020.7 hPa | 0 mm | - | - | - |
| 1776953886 | 21.11° C | 30% | 1020.6 hPa | 0 mm | - | - | - |
| 1776952974 | 21.11° C | 28% | 1020.9 hPa | 0 mm | - | - | - |
| 1776952062 | 20.56° C | 29% | 1021.1 hPa | 0 mm | - | - | - |
| 1776951151 | 22.78° C | 28% | 1021.2 hPa | 0 mm | - | - | - |
| 1776950239 | 21.67° C | 29% | 1021.4 hPa | 0 mm | - | - | - |
| 1776949327 | 20° C | 30% | 1021.8 hPa | 0 mm | - | - | - |
| 1776948416 | 20.56° C | 32% | 1022.1 hPa | 0 mm | - | - | - |
| 1776945680 | 15.56° C | 39% | 1022.8 hPa | 0 mm | - | - | - |
| 1776944769 | 15.56° C | 40% | 1023 hPa | 0 mm | - | - | - |
| 1776943857 | 15.56° C | 39% | 1023.2 hPa | 0 mm | - | - | - |
| 1776942945 | 15.56° C | 39% | 1023.3 hPa | 0 mm | - | - | - |
| 1776942033 | 15° C | 41% | 1023.6 hPa | 0 mm | - | - | - |
| 1776941122 | 15° C | 40% | 1023.9 hPa | 0 mm | - | - | - |
| 1776940210 | 14.44° C | 41% | 1024.1 hPa | 0 mm | - | - | - |
| 1776939298 | 14.44° C | 41% | 1024.4 hPa | 0 mm | - | - | - |
| 1776938387 | 14.44° C | 42% | 1024.6 hPa | 0 mm | - | - | - |
| 1776937475 | 15° C | 41% | 1024.9 hPa | 0 mm | - | - | - |
| 1776936563 | 14.44° C | 44% | 1024.9 hPa | 0 mm | - | - | - |
| 1776935651 | 13.89° C | 48% | 1024.9 hPa | 0 mm | - | - | - |
| 1776934740 | 13.33° C | 49% | 1025.2 hPa | 0 mm | - | - | - |
| 1776933828 | 12.78° C | 51% | 1025.2 hPa | 0 mm | - | - | - |
| 1776932916 | 11.67° C | 54% | 1025.5 hPa | 0 mm | - | - | - |
| 1776932004 | 11.11° C | 57% | 1025.6 hPa | 0 mm | - | - | - |
| 1776931095 | 10.56° C | 63% | 1025.8 hPa | 0 mm | - | - | - |
* Rain latest hour (hover to see other rain measurements)
** Current wind speed in m/s (hover to see current wind gust speed)